createdAt,value
2019-03-26T00:00:09.311Z,98.60
2019-03-26T00:02:37.750Z,98.90
2019-03-26T00:05:06.639Z,98.60
2019-03-26T00:07:35.115Z,98.50
2019-03-26T00:10:04.316Z,98.50
2019-03-26T00:12:32.836Z,98.50
2019-03-26T00:15:01.331Z,98.30
2019-03-26T00:17:29.767Z,98.30
2019-03-26T00:19:58.211Z,98.60
2019-03-26T00:22:26.673Z,99.00
2019-03-26T00:24:55.127Z,99.00
2019-03-26T00:27:23.567Z,99.00
2019-03-26T00:29:52.111Z,99.00
2019-03-26T00:32:23.427Z,98.90
2019-03-26T00:34:50.732Z,98.90
2019-03-26T00:37:19.283Z,98.80
2019-03-26T00:39:47.720Z,98.60
2019-03-26T00:42:16.260Z,98.40
2019-03-26T00:44:44.735Z,98.30
2019-03-26T00:47:13.244Z,98.30
2019-03-26T00:49:41.683Z,98.20
2019-03-26T00:52:10.148Z,98.40
2019-03-26T00:54:38.761Z,98.60
2019-03-26T00:57:07.294Z,98.70
2019-03-26T00:59:35.751Z,98.80
2019-03-26T01:02:05.109Z,99.10
2019-03-26T01:04:33.626Z,99.30
2019-03-26T01:07:02.094Z,99.20
2019-03-26T01:09:30.524Z,99.10
2019-03-26T01:11:58.968Z,99.40
2019-03-26T01:14:27.453Z,99.40
2019-03-26T01:16:55.966Z,99.70
2019-03-26T01:19:24.409Z,99.80
2019-03-26T01:21:52.882Z,99.10
2019-03-26T01:24:21.391Z,99.50
2019-03-26T01:26:49.885Z,99.40
2019-03-26T01:29:18.337Z,99.20
2019-03-26T01:31:46.776Z,99.20
2019-03-26T01:34:15.219Z,99.00
2019-03-26T01:36:43.706Z,99.60
2019-03-26T01:39:12.140Z,99.50
2019-03-26T01:41:40.587Z,99.40
2019-03-26T01:44:09.058Z,99.70
2019-03-26T01:46:37.495Z,99.60
2019-03-26T01:49:05.935Z,99.60
2019-03-26T01:51:34.413Z,99.70
2019-03-26T01:54:02.853Z,99.60
2019-03-26T01:56:31.301Z,99.80
2019-03-26T01:58:59.782Z,99.90
2019-03-26T02:01:28.223Z,99.90
2019-03-26T02:03:56.681Z,99.90
2019-03-26T02:06:25.170Z,99.80
2019-03-26T02:08:53.619Z,99.70
2019-03-26T02:11:22.054Z,99.90
2019-03-26T02:13:50.530Z,99.90
2019-03-26T02:16:19.016Z,99.90
2019-03-26T02:18:47.459Z,99.90
2019-03-26T02:21:15.999Z,99.90
2019-03-26T02:23:44.439Z,99.90
2019-03-26T02:26:12.889Z,99.90
2019-03-26T02:28:41.352Z,99.90
2019-03-26T02:31:09.804Z,99.90
2019-03-26T02:33:38.257Z,99.90
2019-03-26T02:36:06.730Z,99.90
2019-03-26T02:38:35.178Z,99.90
2019-03-26T02:41:03.700Z,99.90
2019-03-26T02:43:32.170Z,99.90
2019-03-26T02:46:00.612Z,99.90
2019-03-26T02:48:29.058Z,99.90
2019-03-26T02:50:57.548Z,99.90
2019-03-26T02:53:27.060Z,99.90
2019-03-26T02:55:55.547Z,99.90
2019-03-26T02:58:24.266Z,99.90
2019-03-26T03:00:52.747Z,99.90
2019-03-26T03:03:21.188Z,99.90
2019-03-26T03:05:49.673Z,99.90
2019-03-26T03:08:18.119Z,99.90
2019-03-26T03:10:46.559Z,99.90
2019-03-26T03:13:15.023Z,99.90
2019-03-26T03:15:43.640Z,99.90
2019-03-26T03:18:12.094Z,99.90
2019-03-26T03:20:40.577Z,99.90
2019-03-26T03:23:09.035Z,99.90
2019-03-26T03:25:37.554Z,99.90
2019-03-26T03:28:06.023Z,99.90
2019-03-26T03:30:34.540Z,99.90
2019-03-26T03:33:02.998Z,99.90
2019-03-26T03:35:31.535Z,99.90
2019-03-26T03:37:59.973Z,99.90
2019-03-26T03:40:28.416Z,99.90
2019-03-26T03:42:56.940Z,99.90
2019-03-26T03:45:28.868Z,99.90
2019-03-26T03:47:58.010Z,99.90
2019-03-26T03:50:29.459Z,99.90
2019-03-26T03:53:00.443Z,99.90
2019-03-26T03:55:30.321Z,99.90
2019-03-26T03:58:00.762Z,99.90
2019-03-26T04:00:34.840Z,99.90
2019-03-26T04:03:04.848Z,99.90
2019-03-26T04:05:33.739Z,99.90
2019-03-26T04:08:02.252Z,99.90
2019-03-26T04:10:30.809Z,99.90
2019-03-26T04:12:59.314Z,99.90
2019-03-26T04:15:27.773Z,99.90
2019-03-26T04:17:56.387Z,99.90
2019-03-26T04:20:24.944Z,99.90
2019-03-26T04:22:53.450Z,99.90
2019-03-26T04:25:21.988Z,99.90
2019-03-26T04:27:50.426Z,99.90
2019-03-26T04:30:27.211Z,99.90
2019-03-26T04:32:55.646Z,99.90
2019-03-26T04:35:24.097Z,99.90
2019-03-26T04:37:52.735Z,99.90
2019-03-26T04:40:21.182Z,99.90
2019-03-26T04:42:49.684Z,99.90
2019-03-26T04:45:18.162Z,99.90
2019-03-26T04:47:46.607Z,99.90
2019-03-26T04:50:15.040Z,99.90
2019-03-26T04:52:43.508Z,99.90
2019-03-26T04:55:12.016Z,99.90
2019-03-26T04:57:40.475Z,99.90
2019-03-26T05:00:10.000Z,99.90
2019-03-26T05:02:38.433Z,99.90
2019-03-26T05:05:06.964Z,99.90
2019-03-26T05:07:35.424Z,99.90
2019-03-26T05:10:06.184Z,99.90
2019-03-26T05:12:34.637Z,99.90
2019-03-26T05:15:03.173Z,99.90
2019-03-26T05:17:31.782Z,99.90
2019-03-26T05:20:00.258Z,99.90
2019-03-26T05:22:28.791Z,99.90
2019-03-26T05:24:57.268Z,99.90
2019-03-26T05:27:25.720Z,99.90
2019-03-26T05:29:54.184Z,99.90
2019-03-26T05:32:22.619Z,99.90
2019-03-26T05:34:51.060Z,99.90
2019-03-26T05:37:19.540Z,99.90
2019-03-26T05:39:47.990Z,99.90
2019-03-26T05:42:16.432Z,99.90
2019-03-26T05:44:44.898Z,99.90
2019-03-26T05:47:13.430Z,99.90
2019-03-26T05:49:41.884Z,99.90
2019-03-26T05:52:10.440Z,99.90
2019-03-26T05:54:38.883Z,99.90
2019-03-26T05:57:07.327Z,99.90
2019-03-26T05:59:55.155Z,99.90
2019-03-26T06:02:23.600Z,99.90
2019-03-26T06:04:52.041Z,99.90
2019-03-26T06:07:20.507Z,99.90
2019-03-26T06:09:48.980Z,99.90
2019-03-26T06:12:17.543Z,99.90
2019-03-26T06:14:46.012Z,99.90
2019-03-26T06:17:14.443Z,99.90
2019-03-26T06:19:42.899Z,99.90
2019-03-26T06:22:11.384Z,99.90
2019-03-26T06:24:39.832Z,99.90
2019-03-26T06:27:08.272Z,99.90
2019-03-26T06:29:36.766Z,99.90
2019-03-26T06:32:05.209Z,99.90
2019-03-26T06:34:33.648Z,99.90
2019-03-26T06:37:02.214Z,99.90
2019-03-26T06:39:30.663Z,99.90
2019-03-26T06:41:59.104Z,99.90
2019-03-26T06:44:27.663Z,99.90
2019-03-26T06:46:56.214Z,99.90
2019-03-26T06:49:24.660Z,99.90
2019-03-26T06:51:53.133Z,99.90
2019-03-26T06:54:21.572Z,99.90
2019-03-26T06:56:50.013Z,99.80
2019-03-26T06:59:18.489Z,99.60
2019-03-26T07:01:47.200Z,99.40
2019-03-26T07:04:15.711Z,99.20
2019-03-26T07:06:44.284Z,99.00
2019-03-26T07:09:12.728Z,99.10
2019-03-26T07:11:41.168Z,98.80
2019-03-26T07:14:09.642Z,98.80
2019-03-26T07:16:38.224Z,98.80
2019-03-26T07:19:06.789Z,98.20
2019-03-26T07:21:35.328Z,98.20
2019-03-26T07:24:04.265Z,98.00
2019-03-26T07:26:32.731Z,97.70
2019-03-26T07:29:01.267Z,97.70
2019-03-26T07:31:29.725Z,97.80
2019-03-26T07:33:58.164Z,97.80
2019-03-26T07:36:26.635Z,97.80
2019-03-26T07:39:14.412Z,98.10
2019-03-26T07:41:43.155Z,97.90
2019-03-26T07:44:11.665Z,97.90
2019-03-26T07:46:40.107Z,97.60
2019-03-26T07:49:08.591Z,97.60
2019-03-26T07:51:37.095Z,97.70
2019-03-26T07:54:05.544Z,97.40
2019-03-26T07:56:34.017Z,97.60
2019-03-26T07:59:02.540Z,97.60
2019-03-26T08:01:30.976Z,97.50
2019-03-26T08:03:59.453Z,97.60
2019-03-26T08:06:27.898Z,97.20
2019-03-26T08:08:56.342Z,97.10
2019-03-26T08:11:24.888Z,96.50
2019-03-26T08:13:53.349Z,96.70
2019-03-26T08:16:21.859Z,96.80
2019-03-26T08:18:50.336Z,96.60
2019-03-26T08:21:18.784Z,96.30
2019-03-26T08:23:47.215Z,95.80
2019-03-26T08:26:15.701Z,95.70
2019-03-26T08:28:44.137Z,95.20
2019-03-26T08:31:12.676Z,95.20
2019-03-26T08:33:41.143Z,95.10
2019-03-26T08:36:09.604Z,95.50
2019-03-26T08:38:38.112Z,95.10
2019-03-26T08:41:06.575Z,94.90
2019-03-26T08:43:35.112Z,94.90
2019-03-26T08:46:03.556Z,95.00
2019-03-26T08:48:32.095Z,95.00
2019-03-26T08:51:00.612Z,95.00
2019-03-26T08:53:29.060Z,94.70
2019-03-26T08:55:57.526Z,94.70
2019-03-26T08:58:25.967Z,94.40
2019-03-26T09:00:54.422Z,94.20
2019-03-26T09:03:22.944Z,94.00
2019-03-26T09:05:51.476Z,93.80
2019-03-26T09:08:25.163Z,93.60
2019-03-26T09:10:51.978Z,93.90
2019-03-26T09:13:20.295Z,93.30
2019-03-26T09:15:48.736Z,93.60
2019-03-26T09:18:17.285Z,93.90
2019-03-26T09:20:45.726Z,93.00
2019-03-26T09:23:14.164Z,93.00
2019-03-26T09:25:42.708Z,93.20
2019-03-26T09:28:11.161Z,93.30
2019-03-26T09:30:39.604Z,92.80
2019-03-26T09:33:08.073Z,92.80
2019-03-26T09:35:36.561Z,91.80
2019-03-26T09:38:05.069Z,92.00
2019-03-26T09:40:33.528Z,92.20
2019-03-26T09:43:02.077Z,92.50
2019-03-26T09:45:30.587Z,92.20
2019-03-26T09:47:59.064Z,92.10
2019-03-26T09:50:32.691Z,91.60
2019-03-26T09:53:01.221Z,91.30
2019-03-26T09:55:29.762Z,91.20
2019-03-26T09:57:58.267Z,91.50
2019-03-26T10:00:26.731Z,91.40
2019-03-26T10:02:55.307Z,90.70
2019-03-26T10:05:43.096Z,90.10
2019-03-26T10:08:11.761Z,90.10
2019-03-26T10:10:40.343Z,90.10
2019-03-26T10:13:08.872Z,88.60
2019-03-26T10:15:37.437Z,88.30
2019-03-26T10:18:05.901Z,89.20
2019-03-26T10:20:34.589Z,88.60
2019-03-26T10:23:03.151Z,86.70
2019-03-26T10:25:31.595Z,86.80
2019-03-26T10:28:00.040Z,84.60
2019-03-26T10:30:39.580Z,84.40
2019-03-26T10:33:17.324Z,83.20
2019-03-26T10:35:45.791Z,83.00
2019-03-26T10:38:14.237Z,82.50
2019-03-26T10:40:42.675Z,80.70
2019-03-26T10:43:18.273Z,80.70
2019-03-26T10:45:46.719Z,76.60
2019-03-26T10:48:15.184Z,77.50
2019-03-26T10:50:43.630Z,74.70
2019-03-26T10:53:12.068Z,75.80
2019-03-26T10:55:40.608Z,72.90
2019-03-26T10:58:09.056Z,71.00
2019-03-26T11:00:37.499Z,67.20
2019-03-26T11:03:06.132Z,64.90
2019-03-26T11:05:34.649Z,65.80
2019-03-26T11:08:03.806Z,67.90
2019-03-26T11:10:32.332Z,69.30
2019-03-26T11:13:00.903Z,67.30
2019-03-26T11:15:29.432Z,67.70
2019-03-26T11:17:57.976Z,66.60
2019-03-26T11:20:26.419Z,66.50
2019-03-26T11:22:54.867Z,63.80
2019-03-26T11:25:40.963Z,62.60
2019-03-26T11:28:09.552Z,63.70
2019-03-26T11:30:38.026Z,64.20
2019-03-26T11:33:06.549Z,61.80
2019-03-26T11:35:35.060Z,62.60
2019-03-26T11:38:03.623Z,58.80
2019-03-26T11:40:32.203Z,60.40
2019-03-26T11:43:00.649Z,60.40
2019-03-26T11:45:29.197Z,64.20
2019-03-26T11:47:57.649Z,62.40
2019-03-26T11:50:26.157Z,60.20
2019-03-26T11:52:54.638Z,60.60
2019-03-26T11:55:23.077Z,61.00
2019-03-26T11:57:51.515Z,61.10
2019-03-26T12:00:22.075Z,61.70
2019-03-26T12:02:50.551Z,63.90
2019-03-26T12:05:19.066Z,66.10
2019-03-26T12:07:47.537Z,64.60
2019-03-26T12:10:16.320Z,66.90
2019-03-26T12:12:44.771Z,68.70
2019-03-26T12:15:13.778Z,67.10
2019-03-26T12:17:42.224Z,66.60
2019-03-26T12:20:11.015Z,66.10
2019-03-26T12:22:39.488Z,68.10
2019-03-26T12:25:08.260Z,68.90
2019-03-26T12:27:37.064Z,66.60
2019-03-26T12:30:07.848Z,65.10
2019-03-26T12:32:36.367Z,64.10
2019-03-26T12:35:27.497Z,64.80
2019-03-26T12:37:55.152Z,63.90
2019-03-26T12:40:23.595Z,63.70
2019-03-26T12:42:52.110Z,63.40
2019-03-26T12:45:20.628Z,64.80
2019-03-26T12:47:49.072Z,65.60
2019-03-26T12:50:17.759Z,63.90
2019-03-26T12:52:46.208Z,63.00
2019-03-26T12:55:14.673Z,62.60
2019-03-26T12:57:43.149Z,63.10
2019-03-26T13:00:12.084Z,65.30
2019-03-26T13:02:40.532Z,65.20
2019-03-26T13:05:09.365Z,65.30
2019-03-26T13:07:37.812Z,66.30
2019-03-26T13:10:13.459Z,63.80
2019-03-26T13:12:37.859Z,64.40
2019-03-26T13:15:28.311Z,64.80
2019-03-26T13:17:56.788Z,63.60
2019-03-26T13:20:25.231Z,65.20
2019-03-26T13:22:53.679Z,63.90
2019-03-26T13:25:22.160Z,65.00
2019-03-26T13:27:50.608Z,64.80
2019-03-26T13:30:19.587Z,63.90
2019-03-26T13:32:48.198Z,63.60
2019-03-26T13:35:18.179Z,65.20
2019-03-26T13:37:46.617Z,63.60
2019-03-26T13:40:26.596Z,63.30
2019-03-26T13:42:45.606Z,63.50
2019-03-26T13:45:14.496Z,63.50
2019-03-26T13:47:43.052Z,62.80
2019-03-26T13:50:32.409Z,63.20
2019-03-26T13:53:01.680Z,63.70
2019-03-26T13:55:30.121Z,63.80
2019-03-26T13:57:58.568Z,63.70
2019-03-26T14:00:38.308Z,64.90
2019-03-26T14:03:06.989Z,63.60
2019-03-26T14:05:35.429Z,63.60
2019-03-26T14:08:24.760Z,64.20
2019-03-26T14:10:53.199Z,64.20
2019-03-26T14:13:21.641Z,63.90
2019-03-26T14:15:50.180Z,63.70
2019-03-26T14:18:18.630Z,62.70
2019-03-26T14:20:47.135Z,62.10
2019-03-26T14:23:15.608Z,62.20
2019-03-26T14:25:44.205Z,62.10
2019-03-26T14:28:12.711Z,62.00
2019-03-26T14:30:42.929Z,62.20
2019-03-26T14:33:11.808Z,62.50
2019-03-26T14:35:40.333Z,63.50
2019-03-26T14:38:08.950Z,63.50
2019-03-26T14:40:37.560Z,64.40
2019-03-26T14:43:07.239Z,63.30
2019-03-26T14:45:35.844Z,62.70
2019-03-26T14:48:04.460Z,63.00
2019-03-26T14:50:32.904Z,63.30
2019-03-26T14:53:01.385Z,64.70
2019-03-26T14:55:30.600Z,63.20
2019-03-26T14:57:59.127Z,63.20
2019-03-26T15:00:27.983Z,62.20
2019-03-26T15:02:56.564Z,62.30
2019-03-26T15:05:25.030Z,62.90
2019-03-26T15:07:53.510Z,63.80
2019-03-26T15:10:23.622Z,63.60
2019-03-26T15:12:52.303Z,63.50
2019-03-26T15:15:20.765Z,62.50
2019-03-26T15:17:49.233Z,63.20
2019-03-26T15:20:18.001Z,61.50
2019-03-26T15:22:46.504Z,61.80
2019-03-26T15:25:14.967Z,62.60
2019-03-26T15:27:43.595Z,62.60
2019-03-26T15:30:12.789Z,63.30
2019-03-26T15:32:41.231Z,63.60
2019-03-26T15:35:09.823Z,63.30
2019-03-26T15:37:38.283Z,62.10
2019-03-26T15:40:08.680Z,61.30
2019-03-26T15:42:37.194Z,58.40
2019-03-26T15:45:07.299Z,57.20
2019-03-26T15:47:35.819Z,58.70
2019-03-26T15:50:05.507Z,59.10
2019-03-26T15:52:33.976Z,60.50
2019-03-26T15:55:21.770Z,58.40
2019-03-26T15:57:50.308Z,53.10
2019-03-26T16:00:21.836Z,52.70
2019-03-26T16:02:50.292Z,51.00
2019-03-26T16:05:18.840Z,54.60
2019-03-26T16:07:47.280Z,57.40
2019-03-26T16:10:15.867Z,58.10
2019-03-26T16:12:44.358Z,55.60
2019-03-26T16:15:12.936Z,55.60
2019-03-26T16:17:41.454Z,54.00
2019-03-26T16:20:10.268Z,57.10
2019-03-26T16:22:38.792Z,59.30
2019-03-26T16:25:08.004Z,58.50
2019-03-26T16:27:36.642Z,59.20
2019-03-26T16:30:30.755Z,61.10
2019-03-26T16:32:59.059Z,60.10
2019-03-26T16:35:27.677Z,60.70
2019-03-26T16:37:56.195Z,60.10
2019-03-26T16:40:24.713Z,61.40
2019-03-26T16:42:53.172Z,62.40
2019-03-26T16:45:21.690Z,62.80
2019-03-26T16:47:50.229Z,62.00
2019-03-26T16:50:18.970Z,61.60
2019-03-26T16:52:47.495Z,61.90
2019-03-26T16:55:18.978Z,63.20
2019-03-26T16:57:47.444Z,64.70
2019-03-26T17:00:32.183Z,65.80
2019-03-26T17:03:01.164Z,65.00
2019-03-26T17:05:29.680Z,65.70
2019-03-26T17:07:58.372Z,66.10
2019-03-26T17:10:26.812Z,64.60
2019-03-26T17:12:55.264Z,65.60
2019-03-26T17:15:23.744Z,65.60
2019-03-26T17:17:52.231Z,66.80
2019-03-26T17:20:23.821Z,66.40
2019-03-26T17:22:50.952Z,67.00
2019-03-26T17:25:19.401Z,67.70
2019-03-26T17:27:47.903Z,67.10
2019-03-26T17:30:16.616Z,68.00
2019-03-26T17:32:45.057Z,68.90
2019-03-26T17:35:13.569Z,68.60
2019-03-26T17:37:42.039Z,69.40
2019-03-26T17:40:10.701Z,70.50
2019-03-26T17:42:39.224Z,70.40
2019-03-26T17:45:08.020Z,71.10
2019-03-26T17:47:36.842Z,72.00
2019-03-26T17:50:07.158Z,71.90
2019-03-26T17:52:35.826Z,71.70
2019-03-26T17:55:06.676Z,72.80
2019-03-26T17:57:35.202Z,73.00
2019-03-26T18:00:04.707Z,73.10
2019-03-26T18:02:33.217Z,72.70
2019-03-26T18:05:01.858Z,74.20
2019-03-26T18:07:30.588Z,75.90
2019-03-26T18:13:41.195Z,78.30
2019-03-26T18:16:15.703Z,77.10
2019-03-26T18:18:44.289Z,77.60
2019-03-26T18:21:12.773Z,78.70
2019-03-26T18:23:44.395Z,79.00
2019-03-26T18:26:12.977Z,79.30
2019-03-26T18:28:41.461Z,81.80
2019-03-26T18:31:09.986Z,84.00
2019-03-26T18:33:38.431Z,84.70
2019-03-26T18:36:07.114Z,83.70
2019-03-26T18:38:35.674Z,85.10
2019-03-26T18:41:04.200Z,85.60
2019-03-26T18:43:32.685Z,86.30
2019-03-26T18:46:20.487Z,86.90
2019-03-26T18:48:49.041Z,87.40
2019-03-26T18:51:17.544Z,87.90
2019-03-26T18:53:46.136Z,88.40
2019-03-26T18:56:14.636Z,88.90
2019-03-26T18:58:43.151Z,89.00
2019-03-26T19:01:11.679Z,89.50
2019-03-26T19:03:40.240Z,89.40
2019-03-26T19:06:08.681Z,89.90
2019-03-26T19:08:39.838Z,90.10
2019-03-26T19:11:07.385Z,90.40
2019-03-26T19:13:35.827Z,90.70
2019-03-26T19:16:04.280Z,91.40
2019-03-26T19:18:32.767Z,91.00
2019-03-26T19:21:02.652Z,90.90
2019-03-26T19:23:31.343Z,91.10
2019-03-26T19:25:59.901Z,91.40
2019-03-26T19:28:28.518Z,91.60
2019-03-26T19:31:00.184Z,91.70
2019-03-26T19:33:28.763Z,92.00
2019-03-26T19:35:58.962Z,91.60
2019-03-26T19:38:27.405Z,91.60
2019-03-26T19:40:57.605Z,91.60
2019-03-26T19:43:26.068Z,91.60
2019-03-26T19:45:56.468Z,92.10
2019-03-26T19:48:26.699Z,92.10
2019-03-26T19:50:57.211Z,92.10
2019-03-26T19:53:25.464Z,92.40
2019-03-26T19:55:54.060Z,92.30
2019-03-26T19:58:22.565Z,92.50
2019-03-26T20:00:51.323Z,92.50
2019-03-26T20:03:20.061Z,92.50
2019-03-26T20:06:12.509Z,92.80
2019-03-26T20:08:29.083Z,92.60
2019-03-26T20:11:16.981Z,92.70
2019-03-26T20:13:48.110Z,92.70
2019-03-26T20:16:19.629Z,92.60
2019-03-26T20:18:47.857Z,92.90
2019-03-26T20:21:16.595Z,92.90
2019-03-26T20:23:45.180Z,93.00
2019-03-26T20:26:13.769Z,93.10
2019-03-26T20:28:42.260Z,93.30
2019-03-26T20:31:10.802Z,93.30
2019-03-26T20:33:42.711Z,93.80
2019-03-26T20:36:11.456Z,94.10
2019-03-26T20:38:40.003Z,94.30
2019-03-26T20:41:09.789Z,94.40
2019-03-26T20:43:52.578Z,94.40
2019-03-26T20:46:21.257Z,94.30
2019-03-26T20:48:49.722Z,94.50
2019-03-26T20:51:34.155Z,94.40
2019-03-26T20:54:02.696Z,94.50
2019-03-26T20:56:31.695Z,94.90
2019-03-26T20:59:00.605Z,95.00
2019-03-26T21:01:29.057Z,95.40
2019-03-26T21:03:57.568Z,95.50
2019-03-26T21:06:26.058Z,95.00
2019-03-26T21:08:54.663Z,95.20
2019-03-26T21:11:24.743Z,94.80
2019-03-26T21:14:05.502Z,95.20
2019-03-26T21:16:34.031Z,95.00
2019-03-26T21:19:02.545Z,94.80
2019-03-26T21:21:31.035Z,95.20
2019-03-26T21:23:59.484Z,95.60
2019-03-26T21:27:06.887Z,95.40
2019-03-26T21:29:35.370Z,95.30
2019-03-26T21:32:04.006Z,95.10
2019-03-26T21:34:32.577Z,95.10
2019-03-26T21:37:01.275Z,95.00
2019-03-26T21:39:29.733Z,95.40
2019-03-26T21:41:58.229Z,95.40
2019-03-26T21:44:26.816Z,95.70
2019-03-26T21:46:55.324Z,96.00
2019-03-26T21:49:23.927Z,96.20
2019-03-26T21:51:52.371Z,96.40
2019-03-26T21:54:20.833Z,96.30
2019-03-26T21:56:49.409Z,96.10
2019-03-26T21:59:17.928Z,95.70
2019-03-26T22:01:46.516Z,95.70
2019-03-26T22:04:15.022Z,96.00
2019-03-26T22:06:52.252Z,95.90
2019-03-26T22:09:20.732Z,96.00
2019-03-26T22:11:50.356Z,96.10
2019-03-26T22:14:19.147Z,96.20
2019-03-26T22:16:47.749Z,95.60
2019-03-26T22:19:27.980Z,95.00
2019-03-26T22:21:46.668Z,95.10
2019-03-26T22:24:17.135Z,95.90
2019-03-26T22:26:45.346Z,95.70
2019-03-26T22:29:13.958Z,95.70
2019-03-26T22:31:42.437Z,95.60
2019-03-26T22:34:10.905Z,95.70
2019-03-26T22:36:39.368Z,95.30
2019-03-26T22:39:08.291Z,95.10
2019-03-26T22:41:36.799Z,95.10
2019-03-26T22:44:05.432Z,95.50
2019-03-26T22:46:33.994Z,95.70
2019-03-26T22:49:02.612Z,94.90
2019-03-26T22:51:31.112Z,95.10
2019-03-26T22:53:59.731Z,95.90
2019-03-26T22:56:28.256Z,95.50
2019-03-26T22:59:16.059Z,95.80
2019-03-26T23:01:50.428Z,95.30
2019-03-26T23:04:20.120Z,95.00
2019-03-26T23:06:48.908Z,95.00
2019-03-26T23:09:17.369Z,94.70
2019-03-26T23:11:45.930Z,94.70
2019-03-26T23:14:14.587Z,94.40
2019-03-26T23:16:43.100Z,94.50
2019-03-26T23:19:11.544Z,94.70
2019-03-26T23:21:40.103Z,94.80
2019-03-26T23:24:08.544Z,94.70
2019-03-26T23:26:36.993Z,94.20
2019-03-26T23:29:07.997Z,94.20
2019-03-26T23:31:36.160Z,94.40
2019-03-26T23:34:04.604Z,94.40
2019-03-26T23:36:33.084Z,94.30
2019-03-26T23:39:01.528Z,94.50
2019-03-26T23:41:29.975Z,94.10
2019-03-26T23:43:58.492Z,94.00
2019-03-26T23:46:26.935Z,93.80
2019-03-26T23:48:55.391Z,93.60
2019-03-26T23:51:23.932Z,93.90
2019-03-26T23:53:52.380Z,93.60
2019-03-26T23:56:20.825Z,93.60
2019-03-26T23:58:49.359Z,93.60
